nws-alerts: Checking more than four warning/county codes can delay the loading of your pages. You should use a cron job to get the data.
EllijayWeather Station Historical Data
Daily Summary for March 18, 2019 Units:  Both    English   Metric
Daily Weekly Monthly Yearly Custom
  High: Low: Average:
Temperature: 54.3 °F /  12.4 °C 29.8 °F /  -1.2 °C 41.4 °F /  5.2 °C
Dew Point: 30.2 °F /  -1 °C 13.3 °F /  -10.4 °C 23.3 °F /  -4.8 °C
Humidity: 90% 21% 55%
Wind Speed: 13.0mph /  20.9km/h - 0.8mph /  1.3km/h
Wind Gust: 20.0mph /  32.2km/h - -
Wind- - WSW
Pressure: 30.38 in /  1028.7 hPa 30.26 in /  1024.6 hPa -
Precipitation: 0.00 in /  0 mm    
Historical Graphs
 
 
Tabular Data for March 18, 2019
Time Temperature Dew Point Pressure Wind Wind Speed Wind Gust Humidity Rainfall Rate (Hourly) solar
00:04 36.1 °F /  2.3 °C 29.3 °F /  -1.5 °C 30.26in /  1024.6hPa Calm     76% 0.00in /  0mm meteobridge W/m2
00:09 36.0 °F /  2.2 °C 29.5 °F /  -1.4 °C 30.26in /  1024.6hPa Calm     77% 0.00in /  0mm meteobridge W/m2
00:14 35.8 °F /  2.1 °C 29.3 °F /  -1.5 °C 30.26in /  1024.6hPa Calm     77% 0.00in /  0mm meteobridge W/m2
00:19 35.6 °F /  2 °C 29.1 °F /  -1.6 °C 30.27in /  1024.9hPa Calm     77% 0.00in /  0mm meteobridge W/m2
00:24 35.4 °F /  1.9 °C 28.9 °F /  -1.7 °C 30.26in /  1024.6hPa Calm     77% 0.00in /  0mm meteobridge W/m2
00:29 35.2 °F /  1.8 °C 28.8 °F /  -1.8 °C 30.27in /  1024.9hPa Calm     77% 0.00in /  0mm meteobridge W/m2
00:34 35.1 °F /  1.7 °C 28.9 °F /  -1.7 °C 30.27in /  1024.9hPa Calm     78% 0.00in /  0mm meteobridge W/m2
00:39 34.9 °F /  1.6 °C 29.1 °F /  -1.6 °C 30.26in /  1024.6hPa Calm     79% 0.00in /  0mm meteobridge W/m2
00:44 34.7 °F /  1.5 °C 28.9 °F /  -1.7 °C 30.26in /  1024.6hPa Calm     79% 0.00in /  0mm meteobridge W/m2
00:49 34.5 °F /  1.4 °C 28.8 °F /  -1.8 °C 30.27in /  1024.9hPa Calm     79% 0.00in /  0mm meteobridge W/m2
00:54 34.5 °F /  1.4 °C 28.9 °F /  -1.7 °C 30.26in /  1024.6hPa Calm     80% 0.00in /  0mm meteobridge W/m2
00:59 34.3 °F /  1.3 °C 28.8 °F /  -1.8 °C 30.27in /  1024.9hPa Calm     80% 0.00in /  0mm meteobridge W/m2
01:04 34.3 °F /  1.3 °C 29.1 °F /  -1.6 °C 30.26in /  1024.6hPa Calm     81% 0.00in /  0mm meteobridge W/m2
01:09 34.2 °F /  1.2 °C 28.9 °F /  -1.7 °C 30.26in /  1024.6hPa Calm     81% 0.00in /  0mm meteobridge W/m2
01:14 34.0 °F /  1.1 °C 28.8 °F /  -1.8 °C 30.26in /  1024.6hPa Calm     81% 0.00in /  0mm meteobridge W/m2
01:19 33.8 °F /  1 °C 28.9 °F /  -1.7 °C 30.26in /  1024.6hPa Calm     82% 0.00in /  0mm meteobridge W/m2
01:24 33.6 °F /  0.9 °C 28.9 °F /  -1.7 °C 30.26in /  1024.6hPa Calm     83% 0.00in /  0mm meteobridge W/m2
01:29 33.4 °F /  0.8 °C 28.6 °F /  -1.9 °C 30.26in /  1024.6hPa Calm     82% 0.00in /  0mm meteobridge W/m2
01:34 33.3 °F /  0.7 °C 28.6 °F /  -1.9 °C 30.26in /  1024.6hPa Calm     83% 0.00in /  0mm meteobridge W/m2
01:39 33.1 °F /  0.6 °C 28.4 °F /  -2 °C 30.26in /  1024.6hPa Calm     83% 0.00in /  0mm meteobridge W/m2
01:44 33.1 °F /  0.6 °C 28.8 °F /  -1.8 °C 30.26in /  1024.6hPa Calm     84% 0.00in /  0mm meteobridge W/m2
01:49 32.7 °F /  0.4 °C 28.4 °F /  -2 °C 30.26in /  1024.6hPa Calm     84% 0.00in /  0mm meteobridge W/m2
01:54 32.5 °F /  0.3 °C 28.2 °F /  -2.1 °C 30.26in /  1024.6hPa Calm     84% 0.00in /  0mm meteobridge W/m2
01:59 32.5 °F /  0.3 °C 28.6 °F /  -1.9 °C 30.26in /  1024.6hPa Calm     85% 0.00in /  0mm meteobridge W/m2
02:04 32.4 °F /  0.2 °C 28.4 °F /  -2 °C 30.27in /  1024.9hPa Calm     85% 0.00in /  0mm meteobridge W/m2
02:09 32.2 °F /  0.1 °C 28.4 °F /  -2 °C 30.26in /  1024.6hPa Calm     86% 0.00in /  0mm meteobridge W/m2
02:14 32.2 °F /  0.1 °C 28.4 °F /  -2 °C 30.27in /  1024.9hPa Calm     86% 0.00in /  0mm meteobridge W/m2
02:19 32.0 °F /  0 °C 28.2 °F /  -2.1 °C 30.27in /  1024.9hPa Calm     86% 0.00in /  0mm meteobridge W/m2
02:24 31.8 °F /  -0.1 °C 28.0 °F /  -2.2 °C 30.27in /  1024.9hPa Calm     86% 0.00in /  0mm meteobridge W/m2
02:29 31.8 °F /  -0.1 °C 28.0 °F /  -2.2 °C 30.27in /  1024.9hPa Calm     86% 0.00in /  0mm meteobridge W/m2
02:34 31.6 °F /  -0.2 °C 28.2 °F /  -2.1 °C 30.27in /  1024.9hPa Calm     87% 0.00in /  0mm meteobridge W/m2
02:39 31.5 °F /  -0.3 °C 28.0 °F /  -2.2 °C 30.27in /  1024.9hPa Calm     87% 0.00in /  0mm meteobridge W/m2
02:44 31.3 °F /  -0.4 °C 27.9 °F /  -2.3 °C 30.27in /  1024.9hPa Calm     87% 0.00in /  0mm meteobridge W/m2
02:49 31.3 °F /  -0.4 °C 27.9 °F /  -2.3 °C 30.27in /  1024.9hPa Calm     87% 0.00in /  0mm meteobridge W/m2
02:54 31.1 °F /  -0.5 °C 28.0 °F /  -2.2 °C 30.27in /  1024.9hPa Calm     88% 0.00in /  0mm meteobridge W/m2
02:59 30.9 °F /  -0.6 °C 27.9 °F /  -2.3 °C 30.27in /  1024.9hPa Calm     88% 0.00in /  0mm meteobridge W/m2
03:04 30.9 °F /  -0.6 °C 27.9 °F /  -2.3 °C 30.27in /  1024.9hPa Calm     88% 0.00in /  0mm meteobridge W/m2
03:09 30.9 °F /  -0.6 °C 27.9 °F /  -2.3 °C 30.27in /  1024.9hPa Calm     88% 0.00in /  0mm meteobridge W/m2
03:14 30.7 °F /  -0.7 °C 27.7 °F /  -2.4 °C 30.27in /  1024.9hPa Calm     88% 0.00in /  0mm meteobridge W/m2
03:19 30.6 °F /  -0.8 °C 27.5 °F /  -2.5 °C 30.27in /  1024.9hPa Calm     88% 0.00in /  0mm meteobridge W/m2
03:24 30.6 °F /  -0.8 °C 27.5 °F /  -2.5 °C 30.27in /  1024.9hPa Calm     88% 0.00in /  0mm meteobridge W/m2
03:29 30.4 °F /  -0.9 °C 27.3 °F /  -2.6 °C 30.27in /  1024.9hPa Calm     88% 0.00in /  0mm meteobridge W/m2
03:34 30.4 °F /  -0.9 °C 27.5 °F /  -2.5 °C 30.27in /  1024.9hPa Calm     89% 0.00in /  0mm meteobridge W/m2
03:39 30.2 °F /  -1 °C 27.3 °F /  -2.6 °C 30.27in /  1024.9hPa Calm     89% 0.00in /  0mm meteobridge W/m2
03:44 30.0 °F /  -1.1 °C 27.1 °F /  -2.7 °C 30.27in /  1024.9hPa Calm     89% 0.00in /  0mm meteobridge W/m2
03:49 30.0 °F /  -1.1 °C 27.1 °F /  -2.7 °C 30.27in /  1024.9hPa Calm     89% 0.00in /  0mm meteobridge W/m2
03:54 30.0 °F /  -1.1 °C 27.1 °F /  -2.7 °C 30.27in /  1024.9hPa Calm     89% 0.00in /  0mm meteobridge W/m2
03:59 29.8 °F /  -1.2 °C 27.0 °F /  -2.8 °C 30.27in /  1024.9hPa Calm     89% 0.00in /  0mm meteobridge W/m2
04:04 29.8 °F /  -1.2 °C 27.3 °F /  -2.6 °C 30.27in /  1024.9hPa Calm     90% 0.00in /  0mm meteobridge W/m2
04:09 29.8 °F /  -1.2 °C 27.3 °F /  -2.6 °C 30.27in /  1024.9hPa Calm     90% 0.00in /  0mm meteobridge W/m2
04:14 29.8 °F /  -1.2 °C 27.3 °F /  -2.6 °C 30.27in /  1024.9hPa Calm     90% 0.00in /  0mm meteobridge W/m2
04:19 29.8 °F /  -1.2 °C 27.3 °F /  -2.6 °C 30.27in /  1024.9hPa Calm     90% 0.00in /  0mm meteobridge W/m2
04:24 29.8 °F /  -1.2 °C 27.3 °F /  -2.6 °C 30.27in /  1024.9hPa Calm     90% 0.00in /  0mm meteobridge W/m2
04:29 29.8 °F /  -1.2 °C 27.3 °F /  -2.6 °C 30.27in /  1024.9hPa Calm     90% 0.00in /  0mm meteobridge W/m2
04:34 30.0 °F /  -1.1 °C 27.1 °F /  -2.7 °C 30.27in /  1024.9hPa Calm     89% 0.00in /  0mm meteobridge W/m2
04:39 30.0 °F /  -1.1 °C 27.1 °F /  -2.7 °C 30.27in /  1024.9hPa Calm     89% 0.00in /  0mm meteobridge W/m2
04:44 30.0 °F /  -1.1 °C 27.1 °F /  -2.7 °C 30.27in /  1024.9hPa Calm     89% 0.00in /  0mm meteobridge W/m2
04:49 30.0 °F /  -1.1 °C 27.1 °F /  -2.7 °C 30.27in /  1024.9hPa Calm     89% 0.00in /  0mm meteobridge W/m2
04:54 30.0 °F /  -1.1 °C 27.1 °F /  -2.7 °C 30.26in /  1024.6hPa Calm     89% 0.00in /  0mm meteobridge W/m2
04:59 30.2 °F /  -1 °C 27.3 °F /  -2.6 °C 30.26in /  1024.6hPa Calm     89% 0.00in /  0mm meteobridge W/m2
05:04 30.2 °F /  -1 °C 27.3 °F /  -2.6 °C 30.26in /  1024.6hPa Calm     89% 0.00in /  0mm meteobridge W/m2
05:09 30.4 °F /  -0.9 °C 27.3 °F /  -2.6 °C 30.26in /  1024.6hPa Calm     88% 0.00in /  0mm meteobridge W/m2
05:14 30.4 °F /  -0.9 °C 27.5 °F /  -2.5 °C 30.26in /  1024.6hPa Calm     89% 0.00in /  0mm meteobridge W/m2
05:19 30.6 °F /  -0.8 °C 27.7 °F /  -2.4 °C 30.26in /  1024.6hPa Calm     89% 0.00in /  0mm meteobridge W/m2
05:24 30.4 °F /  -0.9 °C 27.3 °F /  -2.6 °C 30.26in /  1024.6hPa Calm     88% 0.00in /  0mm meteobridge W/m2
05:29 30.6 °F /  -0.8 °C 27.5 °F /  -2.5 °C 30.26in /  1024.6hPa Calm     88% 0.00in /  0mm meteobridge W/m2
05:34 30.4 °F /  -0.9 °C 27.3 °F /  -2.6 °C 30.26in /  1024.6hPa Calm     88% 0.00in /  0mm meteobridge W/m2
05:39 30.4 °F /  -0.9 °C 27.3 °F /  -2.6 °C 30.26in /  1024.6hPa Calm     88% 0.00in /  0mm meteobridge W/m2
05:44 30.4 °F /  -0.9 °C 27.3 °F /  -2.6 °C 30.26in /  1024.6hPa Calm     88% 0.00in /  0mm meteobridge W/m2
05:49 30.4 °F /  -0.9 °C 27.3 °F /  -2.6 °C 30.27in /  1024.9hPa Calm     88% 0.00in /  0mm meteobridge W/m2
05:54 30.4 °F /  -0.9 °C 27.3 °F /  -2.6 °C 30.26in /  1024.6hPa Calm   1.0mph /  1.6km/h 88% 0.00in /  0mm meteobridge W/m2
05:59 30.4 °F /  -0.9 °C 27.3 °F /  -2.6 °C 30.26in /  1024.6hPa Calm     88% 0.00in /  0mm meteobridge W/m2
06:04 30.2 °F /  -1 °C 27.1 °F /  -2.7 °C 30.26in /  1024.6hPa Calm     88% 0.00in /  0mm meteobridge W/m2
06:09 30.4 °F /  -0.9 °C 27.3 °F /  -2.6 °C 30.27in /  1024.9hPa Calm     88% 0.00in /  0mm meteobridge W/m2
06:14 30.4 °F /  -0.9 °C 27.3 °F /  -2.6 °C 30.27in /  1024.9hPa Calm     88% 0.00in /  0mm meteobridge W/m2
06:19 30.4 °F /  -0.9 °C 27.3 °F /  -2.6 °C 30.27in /  1024.9hPa Calm     88% 0.00in /  0mm meteobridge W/m2
06:24 30.4 °F /  -0.9 °C 27.3 °F /  -2.6 °C 30.27in /  1024.9hPa Calm     88% 0.00in /  0mm meteobridge W/m2
06:29 30.4 °F /  -0.9 °C 27.3 °F /  -2.6 °C 30.27in /  1024.9hPa Calm     88% 0.00in /  0mm meteobridge W/m2
06:33 30.6 °F /  -0.8 °C 27.5 °F /  -2.5 °C 30.27in /  1024.9hPa Calm     88% 0.00in /  0mm meteobridge W/m2
06:39 30.7 °F /  -0.7 °C 27.7 °F /  -2.4 °C 30.27in /  1024.9hPa Calm     88% 0.00in /  0mm meteobridge W/m2
06:44 30.7 °F /  -0.7 °C 27.3 °F /  -2.6 °C 30.27in /  1024.9hPa Calm     87% 0.00in /  0mm meteobridge W/m2
06:49 30.7 °F /  -0.7 °C 27.3 °F /  -2.6 °C 30.27in /  1024.9hPa Calm     87% 0.00in /  0mm meteobridge W/m2
06:54 30.7 °F /  -0.7 °C 27.3 °F /  -2.6 °C 30.27in /  1024.9hPa Calm     87% 0.00in /  0mm meteobridge W/m2
06:59 30.7 °F /  -0.7 °C 27.7 °F /  -2.4 °C 30.28in /  1025.3hPa Calm     88% 0.00in /  0mm meteobridge W/m2
07:04 30.6 °F /  -0.8 °C 27.5 °F /  -2.5 °C 30.28in /  1025.3hPa Calm     88% 0.00in /  0mm meteobridge W/m2
07:09 30.7 °F /  -0.7 °C 27.7 °F /  -2.4 °C 30.28in /  1025.3hPa Calm     88% 0.00in /  0mm meteobridge W/m2
07:14 30.6 °F /  -0.8 °C 27.5 °F /  -2.5 °C 30.28in /  1025.3hPa Calm     88% 0.00in /  0mm meteobridge W/m2
07:18 30.6 °F /  -0.8 °C 27.1 °F /  -2.7 °C 30.28in /  1025.3hPa Calm     87% 0.00in /  0mm meteobridge W/m2
07:24 30.6 °F /  -0.8 °C 27.5 °F /  -2.5 °C 30.28in /  1025.3hPa Calm     88% 0.00in /  0mm meteobridge W/m2
07:29 30.6 °F /  -0.8 °C 27.1 °F /  -2.7 °C 30.28in /  1025.3hPa Calm     87% 0.00in /  0mm meteobridge W/m2
07:34 30.6 °F /  -0.8 °C 27.1 °F /  -2.7 °C 30.28in /  1025.3hPa Calm     87% 0.00in /  0mm meteobridge W/m2
07:39 30.6 °F /  -0.8 °C 27.1 °F /  -2.7 °C 30.29in /  1025.6hPa Calm     87% 0.00in /  0mm meteobridge W/m2
07:44 30.6 °F /  -0.8 °C 27.5 °F /  -2.5 °C 30.29in /  1025.6hPa Calm     88% 0.00in /  0mm meteobridge W/m2
07:49 30.6 °F /  -0.8 °C 27.7 °F /  -2.4 °C 30.29in /  1025.6hPa Calm     89% 0.00in /  0mm meteobridge W/m2
07:54 30.6 °F /  -0.8 °C 27.7 °F /  -2.4 °C 30.29in /  1025.6hPa Calm     89% 0.00in /  0mm meteobridge W/m2
07:59 30.7 °F /  -0.7 °C 27.7 °F /  -2.4 °C 30.29in /  1025.6hPa Calm     88% 0.00in /  0mm meteobridge W/m2
08:04 30.7 °F /  -0.7 °C 27.7 °F /  -2.4 °C 30.30in /  1026hPa Calm     88% 0.00in /  0mm meteobridge W/m2
08:09 30.7 °F /  -0.7 °C 27.7 °F /  -2.4 °C 30.30in /  1026hPa Calm     88% 0.00in /  0mm meteobridge W/m2
08:14 30.7 °F /  -0.7 °C 27.7 °F /  -2.4 °C 30.30in /  1026hPa Calm     88% 0.00in /  0mm meteobridge W/m2
08:19 30.9 °F /  -0.6 °C 27.9 °F /  -2.3 °C 30.30in /  1026hPa Calm     88% 0.00in /  0mm meteobridge W/m2
08:24 31.3 °F /  -0.4 °C 28.4 °F /  -2 °C 30.30in /  1026hPa Calm     89% 0.00in /  0mm meteobridge W/m2
08:29 31.5 °F /  -0.3 °C 28.4 °F /  -2 °C 30.30in /  1026hPa Calm     88% 0.00in /  0mm meteobridge W/m2
08:34 32.0 °F /  0 °C 28.6 °F /  -1.9 °C 30.30in /  1026hPa Calm     87% 0.00in /  0mm meteobridge W/m2
08:39 32.5 °F /  0.3 °C 29.1 °F /  -1.6 °C 30.30in /  1026hPa Calm     87% 0.00in /  0mm meteobridge W/m2
08:44 33.1 °F /  0.6 °C 29.3 °F /  -1.5 °C 30.30in /  1026hPa Calm     86% 0.00in /  0mm meteobridge W/m2
08:49 34.3 °F /  1.3 °C 29.7 °F /  -1.3 °C 30.30in /  1026hPa Calm   1.0mph /  1.6km/h 83% 0.00in /  0mm meteobridge W/m2
08:54 35.4 °F /  1.9 °C 30.2 °F /  -1 °C 30.31in /  1026.3hPa Calm   1.0mph /  1.6km/h 81% 0.00in /  0mm meteobridge W/m2
08:59 36.3 °F /  2.4 °C 29.5 °F /  -1.4 °C 30.31in /  1026.3hPa Calm   1.0mph /  1.6km/h 76% 0.00in /  0mm meteobridge W/m2
09:04 37.2 °F /  2.9 °C 29.7 °F /  -1.3 °C 30.31in /  1026.3hPa ENE 6.9mph /  11.1km/h 7.0mph /  11.3km/h 74% 0.00in /  0mm meteobridge W/m2
09:09 38.1 °F /  3.4 °C 29.8 °F /  -1.2 °C 30.32in /  1026.6hPa Calm   1.0mph /  1.6km/h 72% 0.00in /  0mm meteobridge W/m2
09:14 38.8 °F /  3.8 °C 29.8 °F /  -1.2 °C 30.32in /  1026.6hPa North 2.0mph /  3.2km/h 2.0mph /  3.2km/h 70% 0.00in /  0mm meteobridge W/m2
09:19 39.6 °F /  4.2 °C 29.8 °F /  -1.2 °C 30.33in /  1027hPa Calm   5.0mph /  8km/h 68% 0.00in /  0mm meteobridge W/m2
09:24 40.1 °F /  4.5 °C 29.7 °F /  -1.3 °C 30.33in /  1027hPa Calm   4.0mph /  6.4km/h 66% 0.00in /  0mm meteobridge W/m2
09:29 40.5 °F /  4.7 °C 30.0 °F /  -1.1 °C 30.33in /  1027hPa Calm     66% 0.00in /  0mm meteobridge W/m2
09:34 40.8 °F /  4.9 °C 29.7 °F /  -1.3 °C 30.33in /  1027hPa North 0.9mph /  1.4km/h 3.0mph /  4.8km/h 64% 0.00in /  0mm meteobridge W/m2
09:39 41.2 °F /  5.1 °C 30.0 °F /  -1.1 °C 30.34in /  1027.3hPa Calm   2.0mph /  3.2km/h 64% 0.00in /  0mm meteobridge W/m2
09:44 41.4 °F /  5.2 °C 29.7 °F /  -1.3 °C 30.34in /  1027.3hPa Calm   6.0mph /  9.7km/h 63% 0.00in /  0mm meteobridge W/m2
09:49 41.5 °F /  5.3 °C 29.5 °F /  -1.4 °C 30.34in /  1027.3hPa Calm   4.0mph /  6.4km/h 62% 0.00in /  0mm meteobridge W/m2
09:54 41.7 °F /  5.4 °C 29.7 °F /  -1.3 °C 30.34in /  1027.3hPa North 2.9mph /  4.7km/h 5.0mph /  8km/h 62% 0.00in /  0mm meteobridge W/m2
09:59 42.1 °F /  5.6 °C 30.0 °F /  -1.1 °C 30.34in /  1027.3hPa Calm   5.0mph /  8km/h 62% 0.00in /  0mm meteobridge W/m2
10:04 42.3 °F /  5.7 °C 29.8 °F /  -1.2 °C 30.34in /  1027.3hPa NE 0.9mph /  1.4km/h 2.0mph /  3.2km/h 61% 0.00in /  0mm meteobridge W/m2
10:09 42.6 °F /  5.9 °C 30.2 °F /  -1 °C 30.34in /  1027.3hPa Calm   4.0mph /  6.4km/h 61% 0.00in /  0mm meteobridge W/m2
10:14 43.2 °F /  6.2 °C 30.2 °F /  -1 °C 30.34in /  1027.3hPa Calm   3.0mph /  4.8km/h 60% 0.00in /  0mm meteobridge W/m2
10:19 43.3 °F /  6.3 °C 30.0 °F /  -1.1 °C 30.34in /  1027.3hPa West 2.9mph /  4.7km/h 12.0mph /  19.3km/h 59% 0.00in /  0mm meteobridge W/m2
10:24 43.5 °F /  6.4 °C 29.7 °F /  -1.3 °C 30.34in /  1027.3hPa Calm   2.0mph /  3.2km/h 58% 0.00in /  0mm meteobridge W/m2
10:29 44.1 °F /  6.7 °C 29.8 °F /  -1.2 °C 30.34in /  1027.3hPa Calm   11.0mph /  17.7km/h 57% 0.00in /  0mm meteobridge W/m2
10:34 44.2 °F /  6.8 °C 29.5 °F /  -1.4 °C 30.34in /  1027.3hPa Calm   4.0mph /  6.4km/h 56% 0.00in /  0mm meteobridge W/m2
10:39 45.0 °F /  7.2 °C 28.9 °F /  -1.7 °C 30.34in /  1027.3hPa West 2.0mph /  3.2km/h 7.0mph /  11.3km/h 53% 0.00in /  0mm meteobridge W/m2
10:44 45.1 °F /  7.3 °C 28.0 °F /  -2.2 °C 30.34in /  1027.3hPa ENE 2.9mph /  4.7km/h 8.0mph /  12.9km/h 51% 0.00in /  0mm meteobridge W/m2
10:49 45.7 °F /  7.6 °C 28.6 °F /  -1.9 °C 30.34in /  1027.3hPa Calm   7.0mph /  11.3km/h 51% 0.00in /  0mm meteobridge W/m2
10:54 46.2 °F /  7.9 °C 29.1 °F /  -1.6 °C 30.34in /  1027.3hPa NNE 0.9mph /  1.4km/h 1.0mph /  1.6km/h 51% 0.00in /  0mm meteobridge W/m2
10:59 46.8 °F /  8.2 °C 28.6 °F /  -1.9 °C 30.34in /  1027.3hPa Calm   5.0mph /  8km/h 49% 0.00in /  0mm meteobridge W/m2
11:04 46.9 °F /  8.3 °C 28.8 °F /  -1.8 °C 30.35in /  1027.7hPa Calm   7.0mph /  11.3km/h 49% 0.00in /  0mm meteobridge W/m2
11:09 47.1 °F /  8.4 °C 28.4 °F /  -2 °C 30.34in /  1027.3hPa NNW 0.9mph /  1.4km/h 5.0mph /  8km/h 48% 0.00in /  0mm meteobridge W/m2
11:14 47.8 °F /  8.8 °C 29.7 °F /  -1.3 °C 30.34in /  1027.3hPa Calm   2.0mph /  3.2km/h 49% 0.00in /  0mm meteobridge W/m2
11:19 48.2 °F /  9 °C 27.9 °F /  -2.3 °C 30.35in /  1027.7hPa Calm   6.0mph /  9.7km/h 45% 0.00in /  0mm meteobridge W/m2
11:24 48.6 °F /  9.2 °C 25.9 °F /  -3.4 °C 30.36in /  1028hPa Calm   8.0mph /  12.9km/h 41% 0.00in /  0mm meteobridge W/m2
11:29 48.7 °F /  9.3 °C 26.1 °F /  -3.3 °C 30.36in /  1028hPa WNW 6.0mph /  9.7km/h 10.0mph /  16.1km/h 41% 0.00in /  0mm meteobridge W/m2
11:34 48.9 °F /  9.4 °C 26.8 °F /  -2.9 °C 30.36in /  1028hPa WNW 0.9mph /  1.4km/h 5.0mph /  8km/h 42% 0.00in /  0mm meteobridge W/m2
11:39 49.5 °F /  9.7 °C 25.5 °F /  -3.6 °C 30.36in /  1028hPa NW 2.0mph /  3.2km/h 6.0mph /  9.7km/h 39% 0.00in /  0mm meteobridge W/m2
11:44 49.6 °F /  9.8 °C 25.7 °F /  -3.5 °C 30.36in /  1028hPa West 0.9mph /  1.4km/h 1.0mph /  1.6km/h 39% 0.00in /  0mm meteobridge W/m2
11:49 50.2 °F /  10.1 °C 27.3 °F /  -2.6 °C 30.36in /  1028hPa Calm     41% 0.00in /  0mm meteobridge W/m2
11:54 50.2 °F /  10.1 °C 26.2 °F /  -3.2 °C 30.35in /  1027.7hPa NW 2.9mph /  4.7km/h 4.0mph /  6.4km/h 39% 0.00in /  0mm meteobridge W/m2
11:59 50.2 °F /  10.1 °C 25.5 °F /  -3.6 °C 30.35in /  1027.7hPa WNW 0.9mph /  1.4km/h 2.0mph /  3.2km/h 38% 0.00in /  0mm meteobridge W/m2
12:04 50.5 °F /  10.3 °C 25.2 °F /  -3.8 °C 30.34in /  1027.3hPa Calm   2.0mph /  3.2km/h 37% 0.00in /  0mm meteobridge W/m2
12:09 51.1 °F /  10.6 °C 24.4 °F /  -4.2 °C 30.34in /  1027.3hPa Calm   8.0mph /  12.9km/h 35% 0.00in /  0mm meteobridge W/m2
12:14 51.1 °F /  10.6 °C 23.7 °F /  -4.6 °C 30.34in /  1027.3hPa Calm   3.0mph /  4.8km/h 34% 0.00in /  0mm meteobridge W/m2
12:19 51.3 °F /  10.7 °C 23.9 °F /  -4.5 °C 30.34in /  1027.3hPa WNW 0.9mph /  1.4km/h 4.0mph /  6.4km/h 34% 0.00in /  0mm meteobridge W/m2
12:24 51.3 °F /  10.7 °C 23.9 °F /  -4.5 °C 30.34in /  1027.3hPa South 0.9mph /  1.4km/h 4.0mph /  6.4km/h 34% 0.00in /  0mm meteobridge W/m2
12:29 51.4 °F /  10.8 °C 22.6 °F /  -5.2 °C 30.34in /  1027.3hPa West 4.9mph /  7.9km/h 8.0mph /  12.9km/h 32% 0.00in /  0mm meteobridge W/m2
12:34 51.6 °F /  10.9 °C 22.6 °F /  -5.2 °C 30.34in /  1027.3hPa NNW 0.9mph /  1.4km/h 3.0mph /  4.8km/h 32% 0.00in /  0mm meteobridge W/m2
12:39 52.2 °F /  11.2 °C 23.2 °F /  -4.9 °C 30.34in /  1027.3hPa Calm     32% 0.00in /  0mm meteobridge W/m2
12:44 52.3 °F /  11.3 °C 23.4 °F /  -4.8 °C 30.33in /  1027hPa West 2.0mph /  3.2km/h 3.0mph /  4.8km/h 32% 0.00in /  0mm meteobridge W/m2
12:49 52.2 °F /  11.2 °C 23.2 °F /  -4.9 °C 30.33in /  1027hPa Calm   5.0mph /  8km/h 32% 0.00in /  0mm meteobridge W/m2
12:54 52.3 °F /  11.3 °C 24.1 °F /  -4.4 °C 30.34in /  1027.3hPa Calm   6.0mph /  9.7km/h 33% 0.00in /  0mm meteobridge W/m2
12:59 52.5 °F /  11.4 °C 24.3 °F /  -4.3 °C 30.33in /  1027hPa Calm   3.0mph /  4.8km/h 33% 0.00in /  0mm meteobridge W/m2
13:04 52.3 °F /  11.3 °C 23.4 °F /  -4.8 °C 30.34in /  1027.3hPa Calm   4.0mph /  6.4km/h 32% 0.00in /  0mm meteobridge W/m2
13:09 52.3 °F /  11.3 °C 24.8 °F /  -4 °C 30.33in /  1027hPa Calm   1.0mph /  1.6km/h 34% 0.00in /  0mm meteobridge W/m2
13:14 52.7 °F /  11.5 °C 23.7 °F /  -4.6 °C 30.33in /  1027hPa North 2.9mph /  4.7km/h 7.0mph /  11.3km/h 32% 0.00in /  0mm meteobridge W/m2
13:19 53.1 °F /  11.7 °C 25.3 °F /  -3.7 °C 30.32in /  1026.6hPa Calm   7.0mph /  11.3km/h 34% 0.00in /  0mm meteobridge W/m2
13:24 53.4 °F /  11.9 °C 23.5 °F /  -4.7 °C 30.32in /  1026.6hPa Calm   3.0mph /  4.8km/h 31% 0.00in /  0mm meteobridge W/m2
13:29 53.2 °F /  11.8 °C 22.6 °F /  -5.2 °C 30.32in /  1026.6hPa WNW 2.9mph /  4.7km/h 6.0mph /  9.7km/h 30% 0.00in /  0mm meteobridge W/m2
13:34 53.2 °F /  11.8 °C 23.4 °F /  -4.8 °C 30.32in /  1026.6hPa WNW 4.9mph /  7.9km/h 6.0mph /  9.7km/h 31% 0.00in /  0mm meteobridge W/m2
13:39 53.4 °F /  11.9 °C 24.3 °F /  -4.3 °C 30.32in /  1026.6hPa WNW 2.0mph /  3.2km/h 3.0mph /  4.8km/h 32% 0.00in /  0mm meteobridge W/m2
13:44 53.8 °F /  12.1 °C 25.3 °F /  -3.7 °C 30.32in /  1026.6hPa WNW 2.9mph /  4.7km/h 6.0mph /  9.7km/h 33% 0.00in /  0mm meteobridge W/m2
13:49 53.6 °F /  12 °C 25.2 °F /  -3.8 °C 30.32in /  1026.6hPa NE 2.9mph /  4.7km/h 9.0mph /  14.5km/h 33% 0.00in /  0mm meteobridge W/m2
13:54 53.6 °F /  12 °C 25.9 °F /  -3.4 °C 30.31in /  1026.3hPa NNW 2.0mph /  3.2km/h 7.0mph /  11.3km/h 34% 0.00in /  0mm meteobridge W/m2
13:59 53.8 °F /  12.1 °C 26.1 °F /  -3.3 °C 30.31in /  1026.3hPa NW 2.9mph /  4.7km/h 4.0mph /  6.4km/h 34% 0.00in /  0mm meteobridge W/m2
14:04 54.1 °F /  12.3 °C 25.7 °F /  -3.5 °C 30.31in /  1026.3hPa NNW 4.0mph /  6.4km/h 7.0mph /  11.3km/h 33% 0.00in /  0mm meteobridge W/m2
14:09 54.3 °F /  12.4 °C 25.2 °F /  -3.8 °C 30.31in /  1026.3hPa Calm   5.0mph /  8km/h 32% 0.00in /  0mm meteobridge W/m2
14:14 54.0 °F /  12.2 °C 23.2 °F /  -4.9 °C 30.31in /  1026.3hPa Calm   6.0mph /  9.7km/h 30% 0.00in /  0mm meteobridge W/m2
14:19 54.0 °F /  12.2 °C 22.5 °F /  -5.3 °C 30.31in /  1026.3hPa NNE 2.0mph /  3.2km/h 9.0mph /  14.5km/h 29% 0.00in /  0mm meteobridge W/m2
14:24 53.8 °F /  12.1 °C 21.4 °F /  -5.9 °C 30.32in /  1026.6hPa Calm   5.0mph /  8km/h 28% 0.00in /  0mm meteobridge W/m2
14:29 53.8 °F /  12.1 °C 22.3 °F /  -5.4 °C 30.32in /  1026.6hPa NNW 2.9mph /  4.7km/h 9.0mph /  14.5km/h 29% 0.00in /  0mm meteobridge W/m2
14:34 53.4 °F /  11.9 °C 21.2 °F /  -6 °C 30.32in /  1026.6hPa WSW 0.9mph /  1.4km/h 7.0mph /  11.3km/h 28% 0.00in /  0mm meteobridge W/m2
14:39 53.6 °F /  12 °C 20.5 °F /  -6.4 °C 30.31in /  1026.3hPa Calm   20.0mph /  32.2km/h 27% 0.00in /  0mm meteobridge W/m2
14:44 53.2 °F /  11.8 °C 18.3 °F /  -7.6 °C 30.31in /  1026.3hPa North 2.9mph /  4.7km/h 10.0mph /  16.1km/h 25% 0.00in /  0mm meteobridge W/m2
14:49 53.1 °F /  11.7 °C 18.1 °F /  -7.7 °C 30.30in /  1026hPa WNW 0.9mph /  1.4km/h 15.0mph /  24.1km/h 25% 0.00in /  0mm meteobridge W/m2
14:54 52.7 °F /  11.5 °C 18.7 °F /  -7.4 °C 30.30in /  1026hPa East 8.1mph /  13km/h 10.0mph /  16.1km/h 26% 0.00in /  0mm meteobridge W/m2
14:59 52.5 °F /  11.4 °C 19.4 °F /  -7 °C 30.30in /  1026hPa West 0.9mph /  1.4km/h 12.0mph /  19.3km/h 27% 0.00in /  0mm meteobridge W/m2
15:04 52.9 °F /  11.6 °C 19.8 °F /  -6.8 °C 30.29in /  1025.6hPa Calm   8.0mph /  12.9km/h 27% 0.00in /  0mm meteobridge W/m2
15:09 53.1 °F /  11.7 °C 19.0 °F /  -7.2 °C 30.30in /  1026hPa North 6.0mph /  9.7km/h 7.0mph /  11.3km/h 26% 0.00in /  0mm meteobridge W/m2
15:14 53.2 °F /  11.8 °C 20.1 °F /  -6.6 °C 30.29in /  1025.6hPa NW 4.0mph /  6.4km/h 10.0mph /  16.1km/h 27% 0.00in /  0mm meteobridge W/m2
15:19 53.2 °F /  11.8 °C 18.3 °F /  -7.6 °C 30.30in /  1026hPa NW 2.0mph /  3.2km/h 2.0mph /  3.2km/h 25% 0.00in /  0mm meteobridge W/m2
15:24 53.4 °F /  11.9 °C 19.4 °F /  -7 °C 30.29in /  1025.6hPa Calm   7.0mph /  11.3km/h 26% 0.00in /  0mm meteobridge W/m2
15:29 53.4 °F /  11.9 °C 18.5 °F /  -7.5 °C 30.29in /  1025.6hPa WNW 2.0mph /  3.2km/h 9.0mph /  14.5km/h 25% 0.00in /  0mm meteobridge W/m2
15:34 53.2 °F /  11.8 °C 18.3 °F /  -7.6 °C 30.29in /  1025.6hPa North 0.9mph /  1.4km/h 3.0mph /  4.8km/h 25% 0.00in /  0mm meteobridge W/m2
15:39 53.2 °F /  11.8 °C 18.3 °F /  -7.6 °C 30.29in /  1025.6hPa NNW 6.9mph /  11.1km/h 10.0mph /  16.1km/h 25% 0.00in /  0mm meteobridge W/m2
15:44 53.2 °F /  11.8 °C 19.2 °F /  -7.1 °C 30.29in /  1025.6hPa WNW 6.9mph /  11.1km/h 7.0mph /  11.3km/h 26% 0.00in /  0mm meteobridge W/m2
15:49 53.2 °F /  11.8 °C 18.3 °F /  -7.6 °C 30.29in /  1025.6hPa NW 4.0mph /  6.4km/h 4.0mph /  6.4km/h 25% 0.00in /  0mm meteobridge W/m2
15:54 53.4 °F /  11.9 °C 17.6 °F /  -8 °C 30.29in /  1025.6hPa North 0.9mph /  1.4km/h 8.0mph /  12.9km/h 24% 0.00in /  0mm meteobridge W/m2
15:59 53.1 °F /  11.7 °C 17.2 °F /  -8.2 °C 30.30in /  1026hPa NE 8.9mph /  14.3km/h 9.0mph /  14.5km/h 24% 0.00in /  0mm meteobridge W/m2
16:04 52.9 °F /  11.6 °C 17.1 °F /  -8.3 °C 30.30in /  1026hPa WNW 2.9mph /  4.7km/h 10.0mph /  16.1km/h 24% 0.00in /  0mm meteobridge W/m2
16:09 52.9 °F /  11.6 °C 17.1 °F /  -8.3 °C 30.30in /  1026hPa Calm   8.0mph /  12.9km/h 24% 0.00in /  0mm meteobridge W/m2
16:14 52.9 °F /  11.6 °C 16.2 °F /  -8.8 °C 30.30in /  1026hPa Calm   6.0mph /  9.7km/h 23% 0.00in /  0mm meteobridge W/m2
16:19 52.9 °F /  11.6 °C 15.1 °F /  -9.4 °C 30.30in /  1026hPa Calm   11.0mph /  17.7km/h 22% 0.00in /  0mm meteobridge W/m2
16:24 52.9 °F /  11.6 °C 16.2 °F /  -8.8 °C 30.29in /  1025.6hPa NNW 2.9mph /  4.7km/h 8.0mph /  12.9km/h 23% 0.00in /  0mm meteobridge W/m2
16:29 52.7 °F /  11.5 °C 14.9 °F /  -9.5 °C 30.29in /  1025.6hPa NW 2.0mph /  3.2km/h 6.0mph /  9.7km/h 22% 0.00in /  0mm meteobridge W/m2
16:34 52.5 °F /  11.4 °C 16.7 °F /  -8.5 °C 30.29in /  1025.6hPa Calm   3.0mph /  4.8km/h 24% 0.00in /  0mm meteobridge W/m2
16:39 52.3 °F /  11.3 °C 14.5 °F /  -9.7 °C 30.29in /  1025.6hPa WNW 4.9mph /  7.9km/h 13.0mph /  20.9km/h 22% 0.00in /  0mm meteobridge W/m2
16:44 52.2 °F /  11.2 °C 16.5 °F /  -8.6 °C 30.29in /  1025.6hPa WNW 2.0mph /  3.2km/h 10.0mph /  16.1km/h 24% 0.00in /  0mm meteobridge W/m2
16:49 52.2 °F /  11.2 °C 13.5 °F /  -10.3 °C 30.29in /  1025.6hPa Calm   8.0mph /  12.9km/h 21% 0.00in /  0mm meteobridge W/m2
16:54 52.0 °F /  11.1 °C 13.3 °F /  -10.4 °C 30.29in /  1025.6hPa WNW 6.9mph /  11.1km/h 13.0mph /  20.9km/h 21% 0.00in /  0mm meteobridge W/m2
16:59 52.0 °F /  11.1 °C 15.3 °F /  -9.3 °C 30.29in /  1025.6hPa West 4.0mph /  6.4km/h 9.0mph /  14.5km/h 23% 0.00in /  0mm meteobridge W/m2
17:04 52.0 °F /  11.1 °C 14.4 °F /  -9.8 °C 30.28in /  1025.3hPa WNW 8.9mph /  14.3km/h 9.0mph /  14.5km/h 22% 0.00in /  0mm meteobridge W/m2
17:09 52.0 °F /  11.1 °C 16.3 °F /  -8.7 °C 30.28in /  1025.3hPa ENE 13.0mph /  20.9km/h 13.0mph /  20.9km/h 24% 0.00in /  0mm meteobridge W/m2
17:14 52.0 °F /  11.1 °C 15.3 °F /  -9.3 °C 30.28in /  1025.3hPa West 4.0mph /  6.4km/h 8.0mph /  12.9km/h 23% 0.00in /  0mm meteobridge W/m2
17:19 51.6 °F /  10.9 °C 15.1 °F /  -9.4 °C 30.28in /  1025.3hPa Calm   4.0mph /  6.4km/h 23% 0.00in /  0mm meteobridge W/m2
17:24 51.8 °F /  11 °C 15.1 °F /  -9.4 °C 30.29in /  1025.6hPa NNW 8.1mph /  13km/h 8.0mph /  12.9km/h 23% 0.00in /  0mm meteobridge W/m2
17:29 51.8 °F /  11 °C 14.2 °F /  -9.9 °C 30.29in /  1025.6hPa Calm   7.0mph /  11.3km/h 22% 0.00in /  0mm meteobridge W/m2
17:34 51.6 °F /  10.9 °C 15.1 °F /  -9.4 °C 30.29in /  1025.6hPa NNE 0.9mph /  1.4km/h 4.0mph /  6.4km/h 23% 0.00in /  0mm meteobridge W/m2
17:39 51.8 °F /  11 °C 15.1 °F /  -9.4 °C 30.29in /  1025.6hPa North 6.0mph /  9.7km/h 14.0mph /  22.5km/h 23% 0.00in /  0mm meteobridge W/m2
17:44 51.6 °F /  10.9 °C 15.1 °F /  -9.4 °C 30.29in /  1025.6hPa NNE 2.0mph /  3.2km/h 5.0mph /  8km/h 23% 0.00in /  0mm meteobridge W/m2
17:49 51.3 °F /  10.7 °C 13.6 °F /  -10.2 °C 30.30in /  1026hPa WNW 6.9mph /  11.1km/h 9.0mph /  14.5km/h 22% 0.00in /  0mm meteobridge W/m2
17:54 51.3 °F /  10.7 °C 13.6 °F /  -10.2 °C 30.29in /  1025.6hPa Calm   8.0mph /  12.9km/h 22% 0.00in /  0mm meteobridge W/m2
17:59 51.1 °F /  10.6 °C 13.5 °F /  -10.3 °C 30.30in /  1026hPa NW 2.0mph /  3.2km/h 5.0mph /  8km/h 22% 0.00in /  0mm meteobridge W/m2
18:04 50.9 °F /  10.5 °C 14.4 °F /  -9.8 °C 30.30in /  1026hPa Calm   5.0mph /  8km/h 23% 0.00in /  0mm meteobridge W/m2
18:09 50.7 °F /  10.4 °C 14.2 °F /  -9.9 °C 30.30in /  1026hPa Calm   4.0mph /  6.4km/h 23% 0.00in /  0mm meteobridge W/m2
18:14 50.5 °F /  10.3 °C 15.1 °F /  -9.4 °C 30.30in /  1026hPa NNE 0.9mph /  1.4km/h 12.0mph /  19.3km/h 24% 0.00in /  0mm meteobridge W/m2
18:19 50.4 °F /  10.2 °C 14.9 °F /  -9.5 °C 30.30in /  1026hPa WNW 6.0mph /  9.7km/h 6.0mph /  9.7km/h 24% 0.00in /  0mm meteobridge W/m2
18:24 50.2 °F /  10.1 °C 15.6 °F /  -9.1 °C 30.30in /  1026hPa North 4.0mph /  6.4km/h 4.0mph /  6.4km/h 25% 0.00in /  0mm meteobridge W/m2
18:29 50.0 °F /  10 °C 14.5 °F /  -9.7 °C 30.31in /  1026.3hPa WNW 0.9mph /  1.4km/h 5.0mph /  8km/h 24% 0.00in /  0mm meteobridge W/m2
18:34 50.0 °F /  10 °C 16.5 °F /  -8.6 °C 30.31in /  1026.3hPa Calm   1.0mph /  1.6km/h 26% 0.00in /  0mm meteobridge W/m2
18:39 50.0 °F /  10 °C 16.5 °F /  -8.6 °C 30.32in /  1026.6hPa Calm   4.0mph /  6.4km/h 26% 0.00in /  0mm meteobridge W/m2
18:44 49.8 °F /  9.9 °C 16.3 °F /  -8.7 °C 30.32in /  1026.6hPa Calm   4.0mph /  6.4km/h 26% 0.00in /  0mm meteobridge W/m2
18:49 49.6 °F /  9.8 °C 16.2 °F /  -8.8 °C 30.32in /  1026.6hPa Calm   5.0mph /  8km/h 26% 0.00in /  0mm meteobridge W/m2
18:54 49.5 °F /  9.7 °C 15.1 °F /  -9.4 °C 30.32in /  1026.6hPa WNW 2.9mph /  4.7km/h 5.0mph /  8km/h 25% 0.00in /  0mm meteobridge W/m2
18:59 49.1 °F /  9.5 °C 14.7 °F /  -9.6 °C 30.33in /  1027hPa Calm   8.0mph /  12.9km/h 25% 0.00in /  0mm meteobridge W/m2
19:04 48.9 °F /  9.4 °C 15.4 °F /  -9.2 °C 30.33in /  1027hPa Calm   1.0mph /  1.6km/h 26% 0.00in /  0mm meteobridge W/m2
19:09 48.6 °F /  9.2 °C 16.2 °F /  -8.8 °C 30.33in /  1027hPa NW 2.0mph /  3.2km/h 6.0mph /  9.7km/h 27% 0.00in /  0mm meteobridge W/m2
19:14 48.4 °F /  9.1 °C 16.0 °F /  -8.9 °C 30.33in /  1027hPa WNW 6.0mph /  9.7km/h 6.0mph /  9.7km/h 27% 0.00in /  0mm meteobridge W/m2
19:19 48.2 °F /  9 °C 14.0 °F /  -10 °C 30.33in /  1027hPa NE 2.9mph /  4.7km/h 5.0mph /  8km/h 25% 0.00in /  0mm meteobridge W/m2
19:24 48.0 °F /  8.9 °C 15.6 °F /  -9.1 °C 30.34in /  1027.3hPa NW 0.9mph /  1.4km/h 2.0mph /  3.2km/h 27% 0.00in /  0mm meteobridge W/m2
19:29 47.8 °F /  8.8 °C 15.4 °F /  -9.2 °C 30.34in /  1027.3hPa North 0.9mph /  1.4km/h 7.0mph /  11.3km/h 27% 0.00in /  0mm meteobridge W/m2
19:34 47.7 °F /  8.7 °C 16.2 °F /  -8.8 °C 30.34in /  1027.3hPa NNW 0.9mph /  1.4km/h 1.0mph /  1.6km/h 28% 0.00in /  0mm meteobridge W/m2
19:39 47.5 °F /  8.6 °C 15.1 °F /  -9.4 °C 30.34in /  1027.3hPa Calm   8.0mph /  12.9km/h 27% 0.00in /  0mm meteobridge W/m2
19:44 47.1 °F /  8.4 °C 14.0 °F /  -10 °C 30.34in /  1027.3hPa Calm   1.0mph /  1.6km/h 26% 0.00in /  0mm meteobridge W/m2
19:49 46.9 °F /  8.3 °C 13.8 °F /  -10.1 °C 30.35in /  1027.7hPa Calm   1.0mph /  1.6km/h 26% 0.00in /  0mm meteobridge W/m2
19:54 46.8 °F /  8.2 °C 14.5 °F /  -9.7 °C 30.34in /  1027.3hPa Calm   2.0mph /  3.2km/h 27% 0.00in /  0mm meteobridge W/m2
19:59 46.6 °F /  8.1 °C 16.0 °F /  -8.9 °C 30.35in /  1027.7hPa NNW 0.9mph /  1.4km/h 1.0mph /  1.6km/h 29% 0.00in /  0mm meteobridge W/m2
20:04 46.2 °F /  7.9 °C 14.0 °F /  -10 °C 30.35in /  1027.7hPa Calm   6.0mph /  9.7km/h 27% 0.00in /  0mm meteobridge W/m2
20:09 46.0 °F /  7.8 °C 14.0 °F /  -10 °C 30.35in /  1027.7hPa Calm   4.0mph /  6.4km/h 27% 0.00in /  0mm meteobridge W/m2
20:14 45.9 °F /  7.7 °C 14.5 °F /  -9.7 °C 30.35in /  1027.7hPa Calm     28% 0.00in /  0mm meteobridge W/m2
20:19 45.9 °F /  7.7 °C 13.8 °F /  -10.1 °C 30.36in /  1028hPa Calm   4.0mph /  6.4km/h 27% 0.00in /  0mm meteobridge W/m2
20:24 45.5 °F /  7.5 °C 14.4 °F /  -9.8 °C 30.36in /  1028hPa Calm     28% 0.00in /  0mm meteobridge W/m2
20:29 45.3 °F /  7.4 °C 15.6 °F /  -9.1 °C 30.36in /  1028hPa Calm     30% 0.00in /  0mm meteobridge W/m2
20:34 45.1 °F /  7.3 °C 14.7 °F /  -9.6 °C 30.37in /  1028.3hPa Calm     29% 0.00in /  0mm meteobridge W/m2
20:39 45.0 °F /  7.2 °C 16.9 °F /  -8.4 °C 30.36in /  1028hPa Calm     32% 0.00in /  0mm meteobridge W/m2
20:44 44.4 °F /  6.9 °C 15.6 °F /  -9.1 °C 30.36in /  1028hPa Calm     31% 0.00in /  0mm meteobridge W/m2
20:49 44.1 °F /  6.7 °C 16.2 °F /  -8.8 °C 30.36in /  1028hPa Calm     32% 0.00in /  0mm meteobridge W/m2
20:54 43.7 °F /  6.5 °C 17.2 °F /  -8.2 °C 30.36in /  1028hPa Calm     34% 0.00in /  0mm meteobridge W/m2
20:59 43.2 °F /  6.2 °C 18.0 °F /  -7.8 °C 30.36in /  1028hPa Calm     36% 0.00in /  0mm meteobridge W/m2
21:04 42.8 °F /  6 °C 17.1 °F /  -8.3 °C 30.36in /  1028hPa Calm     35% 0.00in /  0mm meteobridge W/m2
21:09 42.4 °F /  5.8 °C 17.4 °F /  -8.1 °C 30.37in /  1028.3hPa Calm     36% 0.00in /  0mm meteobridge W/m2
21:14 41.7 °F /  5.4 °C 19.2 °F /  -7.1 °C 30.36in /  1028hPa Calm     40% 0.00in /  0mm meteobridge W/m2
21:19 41.4 °F /  5.2 °C 18.9 °F /  -7.3 °C 30.37in /  1028.3hPa Calm     40% 0.00in /  0mm meteobridge W/m2
21:24 40.8 °F /  4.9 °C 19.6 °F /  -6.9 °C 30.37in /  1028.3hPa Calm     42% 0.00in /  0mm meteobridge W/m2
21:29 40.5 °F /  4.7 °C 18.7 °F /  -7.4 °C 30.37in /  1028.3hPa Calm     41% 0.00in /  0mm meteobridge W/m2
21:34 40.3 °F /  4.6 °C 17.2 °F /  -8.2 °C 30.37in /  1028.3hPa Calm     39% 0.00in /  0mm meteobridge W/m2
21:39 39.7 °F /  4.3 °C 20.7 °F /  -6.3 °C 30.37in /  1028.3hPa Calm     46% 0.00in /  0mm meteobridge W/m2
21:44 39.4 °F /  4.1 °C 18.7 °F /  -7.4 °C 30.37in /  1028.3hPa Calm     43% 0.00in /  0mm meteobridge W/m2
21:49 39.0 °F /  3.9 °C 18.9 °F /  -7.3 °C 30.37in /  1028.3hPa Calm     44% 0.00in /  0mm meteobridge W/m2
21:54 38.8 °F /  3.8 °C 19.4 °F /  -7 °C 30.37in /  1028.3hPa Calm     45% 0.00in /  0mm meteobridge W/m2
21:59 38.7 °F /  3.7 °C 18.1 °F /  -7.7 °C 30.37in /  1028.3hPa Calm   1.0mph /  1.6km/h 43% 0.00in /  0mm meteobridge W/m2
22:04 38.5 °F /  3.6 °C 19.6 °F /  -6.9 °C 30.37in /  1028.3hPa Calm     46% 0.00in /  0mm meteobridge W/m2
22:09 38.5 °F /  3.6 °C 19.6 °F /  -6.9 °C 30.38in /  1028.7hPa Calm   1.0mph /  1.6km/h 46% 0.00in /  0mm meteobridge W/m2
22:14 38.5 °F /  3.6 °C 19.0 °F /  -7.2 °C 30.37in /  1028.3hPa Calm   1.0mph /  1.6km/h 45% 0.00in /  0mm meteobridge W/m2
22:19 38.5 °F /  3.6 °C 18.0 °F /  -7.8 °C 30.37in /  1028.3hPa Calm   1.0mph /  1.6km/h 43% 0.00in /  0mm meteobridge W/m2
22:24 38.7 °F /  3.7 °C 18.1 °F /  -7.7 °C 30.37in /  1028.3hPa Calm   2.0mph /  3.2km/h 43% 0.00in /  0mm meteobridge W/m2
22:29 38.8 °F /  3.8 °C 19.8 °F /  -6.8 °C 30.37in /  1028.3hPa Calm     46% 0.00in /  0mm meteobridge W/m2
22:34 38.8 °F /  3.8 °C 20.3 °F /  -6.5 °C 30.37in /  1028.3hPa Calm   1.0mph /  1.6km/h 47% 0.00in /  0mm meteobridge W/m2
22:39 38.8 °F /  3.8 °C 20.8 °F /  -6.2 °C 30.37in /  1028.3hPa Calm     48% 0.00in /  0mm meteobridge W/m2
22:44 38.8 °F /  3.8 °C 18.9 °F /  -7.3 °C 30.37in /  1028.3hPa Calm     44% 0.00in /  0mm meteobridge W/m2
22:49 39.2 °F /  4 °C 19.6 °F /  -6.9 °C 30.37in /  1028.3hPa Calm     45% 0.00in /  0mm meteobridge W/m2
22:54 39.2 °F /  4 °C 21.2 °F /  -6 °C 30.37in /  1028.3hPa Calm     48% 0.00in /  0mm meteobridge W/m2
22:59 39.0 °F /  3.9 °C 19.4 °F /  -7 °C 30.37in /  1028.3hPa Calm     45% 0.00in /  0mm meteobridge W/m2
23:04 39.0 °F /  3.9 °C 19.9 °F /  -6.7 °C 30.38in /  1028.7hPa Calm     46% 0.00in /  0mm meteobridge W/m2
23:09 39.0 °F /  3.9 °C 18.9 °F /  -7.3 °C 30.38in /  1028.7hPa Calm     44% 0.00in /  0mm meteobridge W/m2
23:14 39.0 °F /  3.9 °C 19.4 °F /  -7 °C 30.38in /  1028.7hPa Calm     45% 0.00in /  0mm meteobridge W/m2
23:19 38.8 °F /  3.8 °C 18.3 °F /  -7.6 °C 30.38in /  1028.7hPa Calm     43% 0.00in /  0mm meteobridge W/m2
23:24 38.8 °F /  3.8 °C 18.9 °F /  -7.3 °C 30.38in /  1028.7hPa Calm     44% 0.00in /  0mm meteobridge W/m2
23:29 38.7 °F /  3.7 °C 18.1 °F /  -7.7 °C 30.38in /  1028.7hPa Calm     43% 0.00in /  0mm meteobridge W/m2
23:34 38.8 °F /  3.8 °C 19.8 °F /  -6.8 °C 30.38in /  1028.7hPa Calm     46% 0.00in /  0mm meteobridge W/m2
23:39 38.7 °F /  3.7 °C 19.6 °F /  -6.9 °C 30.38in /  1028.7hPa Calm     46% 0.00in /  0mm meteobridge W/m2
23:44 38.5 °F /  3.6 °C 18.5 °F /  -7.5 °C 30.38in /  1028.7hPa Calm     44% 0.00in /  0mm meteobridge W/m2
23:49 38.5 °F /  3.6 °C 19.0 °F /  -7.2 °C 30.38in /  1028.7hPa Calm     45% 0.00in /  0mm meteobridge W/m2
23:54 38.3 °F /  3.5 °C 19.4 °F /  -7 °C 30.38in /  1028.7hPa Calm     46% 0.00in /  0mm meteobridge W/m2
23:59 38.1 °F /  3.4 °C 19.6 °F /  -6.9 °C 30.38in /  1028.7hPa Calm     47% 0.00in /  0mm meteobridge W/m2
EllijayWeather
Compliments of Weather Underground - 2.5 mb